sensor_id;sensor_type;location;lat;lon;timestamp;P1;durP1;ratioP1;P2;durP2;ratioP2
7471;SDS011;3777;48.722;8.110;2023-02-01T00:00:26;10.70;;;7.77;;
7471;SDS011;3777;48.722;8.110;2023-02-01T00:02:55;9.90;;;7.57;;
7471;SDS011;3777;48.722;8.110;2023-02-01T00:05:22;10.20;;;7.60;;
7471;SDS011;3777;48.722;8.110;2023-02-01T00:07:48;12.17;;;7.67;;
7471;SDS011;3777;48.722;8.110;2023-02-01T00:10:16;9.23;;;7.70;;
7471;SDS011;3777;48.722;8.110;2023-02-01T00:12:43;11.40;;;7.90;;
7471;SDS011;3777;48.722;8.110;2023-02-01T00:15:10;10.70;;;7.13;;
7471;SDS011;3777;48.722;8.110;2023-02-01T00:17:37;9.87;;;7.53;;
7471;SDS011;3777;48.722;8.110;2023-02-01T00:20:06;9.40;;;6.97;;
7471;SDS011;3777;48.722;8.110;2023-02-01T00:22:35;10.77;;;7.27;;
7471;SDS011;3777;48.722;8.110;2023-02-01T00:25:01;9.33;;;7.43;;
7471;SDS011;3777;48.722;8.110;2023-02-01T00:27:29;9.20;;;7.43;;
7471;SDS011;3777;48.722;8.110;2023-02-01T00:29:56;14.83;;;7.77;;
7471;SDS011;3777;48.722;8.110;2023-02-01T00:32:23;8.47;;;7.10;;
7471;SDS011;3777;48.722;8.110;2023-02-01T00:34:50;12.47;;;7.57;;
7471;SDS011;3777;48.722;8.110;2023-02-01T00:37:18;12.40;;;7.70;;
7471;SDS011;3777;48.722;8.110;2023-02-01T00:39:45;10.13;;;7.50;;
7471;SDS011;3777;48.722;8.110;2023-02-01T00:42:12;10.57;;;7.87;;
7471;SDS011;3777;48.722;8.110;2023-02-01T00:44:39;10.03;;;7.93;;
7471;SDS011;3777;48.722;8.110;2023-02-01T00:47:05;9.63;;;8.10;;
7471;SDS011;3777;48.722;8.110;2023-02-01T00:49:32;9.03;;;8.00;;
7471;SDS011;3777;48.722;8.110;2023-02-01T00:51:59;11.17;;;8.47;;
7471;SDS011;3777;48.722;8.110;2023-02-01T00:54:28;10.60;;;7.83;;
7471;SDS011;3777;48.722;8.110;2023-02-01T00:56:55;10.03;;;8.30;;
7471;SDS011;3777;48.722;8.110;2023-02-01T00:59:22;11.73;;;8.57;;
7471;SDS011;3777;48.722;8.110;2023-02-01T01:01:48;13.23;;;8.90;;
7471;SDS011;3777;48.722;8.110;2023-02-01T01:04:15;10.73;;;8.13;;
7471;SDS011;3777;48.722;8.110;2023-02-01T01:06:42;11.10;;;8.27;;
7471;SDS011;3777;48.722;8.110;2023-02-01T01:09:09;8.73;;;7.80;;
7471;SDS011;3777;48.722;8.110;2023-02-01T01:11:38;9.03;;;7.50;;
7471;SDS011;3777;48.722;8.110;2023-02-01T01:14:06;9.13;;;7.53;;
7471;SDS011;3777;48.722;8.110;2023-02-01T01:16:33;10.70;;;8.10;;
7471;SDS011;3777;48.722;8.110;2023-02-01T01:19:01;11.53;;;8.53;;
7471;SDS011;3777;48.722;8.110;2023-02-01T01:21:29;9.80;;;7.80;;
7471;SDS011;3777;48.722;8.110;2023-02-01T01:23:56;10.70;;;8.97;;
7471;SDS011;3777;48.722;8.110;2023-02-01T01:26:24;10.73;;;7.83;;
7471;SDS011;3777;48.722;8.110;2023-02-01T01:28:56;11.37;;;8.60;;
7471;SDS011;3777;48.722;8.110;2023-02-01T01:31:23;10.23;;;8.53;;
7471;SDS011;3777;48.722;8.110;2023-02-01T01:33:52;12.57;;;8.70;;
7471;SDS011;3777;48.722;8.110;2023-02-01T01:36:20;11.07;;;9.67;;
7471;SDS011;3777;48.722;8.110;2023-02-01T01:38:47;10.40;;;9.10;;
7471;SDS011;3777;48.722;8.110;2023-02-01T01:41:15;9.73;;;8.37;;
7471;SDS011;3777;48.722;8.110;2023-02-01T01:43:48;11.00;;;8.67;;
7471;SDS011;3777;48.722;8.110;2023-02-01T01:46:19;10.53;;;8.73;;
7471;SDS011;3777;48.722;8.110;2023-02-01T01:48:48;11.83;;;8.50;;
7471;SDS011;3777;48.722;8.110;2023-02-01T01:51:20;10.30;;;9.07;;
7471;SDS011;3777;48.722;8.110;2023-02-01T01:53:50;10.73;;;8.70;;
7471;SDS011;3777;48.722;8.110;2023-02-01T01:56:24;10.00;;;7.97;;
7471;SDS011;3777;48.722;8.110;2023-02-01T01:58:52;10.70;;;7.83;;
7471;SDS011;3777;48.722;8.110;2023-02-01T02:01:21;10.83;;;8.27;;
7471;SDS011;3777;48.722;8.110;2023-02-01T02:03:48;11.43;;;8.37;;
7471;SDS011;3777;48.722;8.110;2023-02-01T02:06:19;11.30;;;8.77;;
7471;SDS011;3777;48.722;8.110;2023-02-01T02:08:51;10.97;;;8.00;;
7471;SDS011;3777;48.722;8.110;2023-02-01T02:11:18;10.77;;;7.90;;
7471;SDS011;3777;48.722;8.110;2023-02-01T02:13:46;8.83;;;7.80;;
7471;SDS011;3777;48.722;8.110;2023-02-01T02:16:23;10.07;;;8.27;;
7471;SDS011;3777;48.722;8.110;2023-02-01T02:19:14;10.40;;;8.27;;
7471;SDS011;3777;48.722;8.110;2023-02-01T02:22:09;11.43;;;8.10;;
7471;SDS011;3777;48.722;8.110;2023-02-01T02:25:02;9.73;;;7.97;;
7471;SDS011;3777;48.722;8.110;2023-02-01T02:27:46;9.97;;;7.70;;
7471;SDS011;3777;48.722;8.110;2023-02-01T02:30:31;8.93;;;7.83;;
7471;SDS011;3777;48.722;8.110;2023-02-01T02:36:30;9.63;;;8.07;;
7471;SDS011;3777;48.722;8.110;2023-02-01T02:39:05;10.00;;;7.40;;
7471;SDS011;3777;48.722;8.110;2023-02-01T02:41:38;9.30;;;7.10;;
7471;SDS011;3777;48.722;8.110;2023-02-01T02:44:42;8.50;;;6.97;;
7471;SDS011;3777;48.722;8.110;2023-02-01T02:47:33;7.90;;;6.87;;
7471;SDS011;3777;48.722;8.110;2023-02-01T02:50:20;8.90;;;6.97;;
7471;SDS011;3777;48.722;8.110;2023-02-01T02:53:09;8.27;;;7.03;;
7471;SDS011;3777;48.722;8.110;2023-02-01T02:55:57;8.33;;;6.47;;
7471;SDS011;3777;48.722;8.110;2023-02-01T02:58:43;8.10;;;6.67;;
7471;SDS011;3777;48.722;8.110;2023-02-01T03:01:29;8.10;;;6.73;;
7471;SDS011;3777;48.722;8.110;2023-02-01T03:04:15;8.13;;;6.67;;
7471;SDS011;3777;48.722;8.110;2023-02-01T03:06:44;7.10;;;6.40;;
7471;SDS011;3777;48.722;8.110;2023-02-01T03:09:13;8.70;;;6.77;;
7471;SDS011;3777;48.722;8.110;2023-02-01T03:11:44;7.53;;;6.30;;
7471;SDS011;3777;48.722;8.110;2023-02-01T03:14:31;6.87;;;5.90;;
7471;SDS011;3777;48.722;8.110;2023-02-01T03:17:02;6.63;;;5.30;;
7471;SDS011;3777;48.722;8.110;2023-02-01T03:19:34;6.40;;;5.60;;
7471;SDS011;3777;48.722;8.110;2023-02-01T03:22:10;8.53;;;6.40;;
7471;SDS011;3777;48.722;8.110;2023-02-01T03:24:41;6.47;;;5.70;;
7471;SDS011;3777;48.722;8.110;2023-02-01T03:27:11;7.50;;;5.53;;
7471;SDS011;3777;48.722;8.110;2023-02-01T03:29:44;7.00;;;5.53;;
7471;SDS011;3777;48.722;8.110;2023-02-01T03:32:15;7.70;;;5.40;;
7471;SDS011;3777;48.722;8.110;2023-02-01T03:34:42;6.13;;;5.10;;
7471;SDS011;3777;48.722;8.110;2023-02-01T03:37:12;5.93;;;5.03;;
7471;SDS011;3777;48.722;8.110;2023-02-01T03:39:44;5.73;;;4.93;;
7471;SDS011;3777;48.722;8.110;2023-02-01T03:42:14;5.97;;;4.87;;
7471;SDS011;3777;48.722;8.110;2023-02-01T03:44:46;7.70;;;5.30;;
7471;SDS011;3777;48.722;8.110;2023-02-01T03:47:18;5.90;;;5.03;;
7471;SDS011;3777;48.722;8.110;2023-02-01T03:49:48;6.90;;;4.90;;
7471;SDS011;3777;48.722;8.110;2023-02-01T03:52:22;6.33;;;4.77;;
7471;SDS011;3777;48.722;8.110;2023-02-01T03:54:51;5.57;;;4.47;;
7471;SDS011;3777;48.722;8.110;2023-02-01T03:57:20;6.77;;;4.63;;
7471;SDS011;3777;48.722;8.110;2023-02-01T03:59:52;4.87;;;4.37;;
7471;SDS011;3777;48.722;8.110;2023-02-01T04:02:19;5.00;;;4.03;;
7471;SDS011;3777;48.722;8.110;2023-02-01T04:04:46;5.10;;;4.03;;
7471;SDS011;3777;48.722;8.110;2023-02-01T04:07:13;6.17;;;4.30;;
7471;SDS011;3777;48.722;8.110;2023-02-01T04:09:43;6.13;;;4.23;;
7471;SDS011;3777;48.722;8.110;2023-02-01T04:12:10;6.60;;;4.20;;
7471;SDS011;3777;48.722;8.110;2023-02-01T04:14:37;4.57;;;4.03;;
7471;SDS011;3777;48.722;8.110;2023-02-01T04:17:04;5.30;;;4.40;;
7471;SDS011;3777;48.722;8.110;2023-02-01T04:19:31;6.00;;;4.10;;
7471;SDS011;3777;48.722;8.110;2023-02-01T04:21:58;3.90;;;3.50;;
7471;SDS011;3777;48.722;8.110;2023-02-01T04:24:24;4.43;;;3.83;;
7471;SDS011;3777;48.722;8.110;2023-02-01T04:26:53;4.20;;;3.70;;
7471;SDS011;3777;48.722;8.110;2023-02-01T04:29:20;4.23;;;3.53;;
7471;SDS011;3777;48.722;8.110;2023-02-01T04:31:47;6.13;;;3.93;;
7471;SDS011;3777;48.722;8.110;2023-02-01T04:34:14;4.37;;;3.77;;
7471;SDS011;3777;48.722;8.110;2023-02-01T04:36:41;5.83;;;4.17;;
7471;SDS011;3777;48.722;8.110;2023-02-01T04:39:08;5.10;;;4.00;;
7471;SDS011;3777;48.722;8.110;2023-02-01T04:41:35;5.10;;;3.73;;
7471;SDS011;3777;48.722;8.110;2023-02-01T04:44:04;4.73;;;3.80;;
7471;SDS011;3777;48.722;8.110;2023-02-01T04:46:31;5.40;;;4.13;;
7471;SDS011;3777;48.722;8.110;2023-02-01T04:48:58;4.63;;;3.70;;
7471;SDS011;3777;48.722;8.110;2023-02-01T04:51:25;4.50;;;3.60;;
7471;SDS011;3777;48.722;8.110;2023-02-01T04:53:52;4.13;;;3.27;;
7471;SDS011;3777;48.722;8.110;2023-02-01T04:56:20;4.80;;;3.53;;
7471;SDS011;3777;48.722;8.110;2023-02-01T04:58:47;4.17;;;3.53;;
7471;SDS011;3777;48.722;8.110;2023-02-01T05:01:16;4.30;;;3.87;;
7471;SDS011;3777;48.722;8.110;2023-02-01T05:03:43;4.97;;;3.40;;
7471;SDS011;3777;48.722;8.110;2023-02-01T05:06:10;5.50;;;3.40;;
7471;SDS011;3777;48.722;8.110;2023-02-01T05:08:37;5.37;;;4.07;;
7471;SDS011;3777;48.722;8.110;2023-02-01T05:11:04;3.97;;;3.47;;
7471;SDS011;3777;48.722;8.110;2023-02-01T05:13:31;6.33;;;4.27;;
7471;SDS011;3777;48.722;8.110;2023-02-01T05:16:16;4.83;;;4.10;;
7471;SDS011;3777;48.722;8.110;2023-02-01T05:18:43;4.67;;;3.73;;
7471;SDS011;3777;48.722;8.110;2023-02-01T05:21:10;5.30;;;4.30;;
7471;SDS011;3777;48.722;8.110;2023-02-01T05:23:37;4.67;;;3.77;;
7471;SDS011;3777;48.722;8.110;2023-02-01T05:26:18;5.17;;;4.00;;
7471;SDS011;3777;48.722;8.110;2023-02-01T05:28:45;6.43;;;4.13;;
7471;SDS011;3777;48.722;8.110;2023-02-01T05:31:12;5.00;;;4.10;;
7471;SDS011;3777;48.722;8.110;2023-02-01T05:33:40;4.77;;;3.97;;
7471;SDS011;3777;48.722;8.110;2023-02-01T05:36:07;7.23;;;4.00;;
7471;SDS011;3777;48.722;8.110;2023-02-01T05:38:34;6.97;;;3.93;;
7471;SDS011;3777;48.722;8.110;2023-02-01T05:41:01;5.57;;;4.03;;
7471;SDS011;3777;48.722;8.110;2023-02-01T05:43:28;4.37;;;3.47;;
7471;SDS011;3777;48.722;8.110;2023-02-01T05:45:55;5.07;;;4.23;;
7471;SDS011;3777;48.722;8.110;2023-02-01T05:48:22;4.60;;;4.07;;
7471;SDS011;3777;48.722;8.110;2023-02-01T05:50:50;6.33;;;4.07;;
7471;SDS011;3777;48.722;8.110;2023-02-01T05:53:17;4.93;;;4.03;;
7471;SDS011;3777;48.722;8.110;2023-02-01T05:55:44;5.27;;;4.17;;
7471;SDS011;3777;48.722;8.110;2023-02-01T05:58:11;6.67;;;4.30;;
7471;SDS011;3777;48.722;8.110;2023-02-01T06:00:38;7.13;;;4.23;;
7471;SDS011;3777;48.722;8.110;2023-02-01T06:03:05;6.50;;;4.63;;
7471;SDS011;3777;48.722;8.110;2023-02-01T06:05:32;5.83;;;4.30;;
7471;SDS011;3777;48.722;8.110;2023-02-01T06:08:01;5.93;;;4.60;;
7471;SDS011;3777;48.722;8.110;2023-02-01T06:10:28;6.07;;;4.60;;
7471;SDS011;3777;48.722;8.110;2023-02-01T06:12:55;7.83;;;4.90;;
7471;SDS011;3777;48.722;8.110;2023-02-01T06:15:21;5.53;;;4.20;;
7471;SDS011;3777;48.722;8.110;2023-02-01T06:17:48;6.43;;;5.07;;
7471;SDS011;3777;48.722;8.110;2023-02-01T06:20:16;5.87;;;4.57;;
7471;SDS011;3777;48.722;8.110;2023-02-01T06:22:43;7.10;;;4.80;;
7471;SDS011;3777;48.722;8.110;2023-02-01T06:25:11;6.10;;;4.77;;
7471;SDS011;3777;48.722;8.110;2023-02-01T06:27:38;6.93;;;4.97;;
7471;SDS011;3777;48.722;8.110;2023-02-01T06:30:06;6.43;;;4.47;;
7471;SDS011;3777;48.722;8.110;2023-02-01T06:32:34;6.67;;;4.60;;
7471;SDS011;3777;48.722;8.110;2023-02-01T06:35:00;5.10;;;4.20;;
7471;SDS011;3777;48.722;8.110;2023-02-01T06:37:27;7.37;;;4.70;;
7471;SDS011;3777;48.722;8.110;2023-02-01T06:39:55;6.73;;;5.17;;
7471;SDS011;3777;48.722;8.110;2023-02-01T06:42:23;4.60;;;4.20;;
7471;SDS011;3777;48.722;8.110;2023-02-01T06:44:50;5.47;;;4.90;;
7471;SDS011;3777;48.722;8.110;2023-02-01T06:47:17;6.33;;;4.93;;
7471;SDS011;3777;48.722;8.110;2023-02-01T06:49:44;4.97;;;4.47;;
7471;SDS011;3777;48.722;8.110;2023-02-01T06:52:11;6.20;;;4.40;;
7471;SDS011;3777;48.722;8.110;2023-02-01T06:54:38;5.20;;;4.20;;
7471;SDS011;3777;48.722;8.110;2023-02-01T06:57:05;5.27;;;4.00;;
7471;SDS011;3777;48.722;8.110;2023-02-01T06:59:33;5.83;;;4.00;;
7471;SDS011;3777;48.722;8.110;2023-02-01T07:02:00;5.77;;;4.10;;
7471;SDS011;3777;48.722;8.110;2023-02-01T07:04:27;4.90;;;3.93;;
7471;SDS011;3777;48.722;8.110;2023-02-01T07:06:54;7.47;;;4.40;;
7471;SDS011;3777;48.722;8.110;2023-02-01T07:09:21;5.47;;;4.27;;
7471;SDS011;3777;48.722;8.110;2023-02-01T07:11:48;6.50;;;4.13;;
7471;SDS011;3777;48.722;8.110;2023-02-01T07:14:15;6.20;;;4.00;;
7471;SDS011;3777;48.722;8.110;2023-02-01T07:16:43;6.77;;;3.83;;
7471;SDS011;3777;48.722;8.110;2023-02-01T07:19:10;5.27;;;3.93;;
7471;SDS011;3777;48.722;8.110;2023-02-01T07:21:37;4.27;;;3.73;;
7471;SDS011;3777;48.722;8.110;2023-02-01T07:24:04;5.87;;;3.70;;
7471;SDS011;3777;48.722;8.110;2023-02-01T07:26:31;4.30;;;3.90;;
7471;SDS011;3777;48.722;8.110;2023-02-01T07:28:58;4.83;;;3.53;;
7471;SDS011;3777;48.722;8.110;2023-02-01T07:31:25;4.83;;;3.77;;
7471;SDS011;3777;48.722;8.110;2023-02-01T07:33:55;8.00;;;4.00;;
7471;SDS011;3777;48.722;8.110;2023-02-01T07:36:23;4.17;;;3.50;;
7471;SDS011;3777;48.722;8.110;2023-02-01T07:38:50;4.10;;;3.40;;
7471;SDS011;3777;48.722;8.110;2023-02-01T07:41:17;4.40;;;3.30;;
7471;SDS011;3777;48.722;8.110;2023-02-01T07:43:44;4.60;;;3.00;;
7471;SDS011;3777;48.722;8.110;2023-02-01T07:46:11;4.17;;;3.30;;
7471;SDS011;3777;48.722;8.110;2023-02-01T07:48:40;3.83;;;3.50;;
7471;SDS011;3777;48.722;8.110;2023-02-01T07:51:10;4.60;;;3.50;;
7471;SDS011;3777;48.722;8.110;2023-02-01T07:53:38;3.97;;;3.40;;
7471;SDS011;3777;48.722;8.110;2023-02-01T07:56:09;5.73;;;3.77;;
7471;SDS011;3777;48.722;8.110;2023-02-01T07:58:37;5.43;;;3.27;;
7471;SDS011;3777;48.722;8.110;2023-02-01T08:01:04;3.70;;;3.03;;
7471;SDS011;3777;48.722;8.110;2023-02-01T08:03:46;4.37;;;3.50;;
7471;SDS011;3777;48.722;8.110;2023-02-01T08:06:15;4.67;;;3.60;;
7471;SDS011;3777;48.722;8.110;2023-02-01T08:08:42;3.67;;;3.20;;
7471;SDS011;3777;48.722;8.110;2023-02-01T08:11:12;4.93;;;3.60;;
7471;SDS011;3777;48.722;8.110;2023-02-01T08:13:40;3.87;;;3.47;;
7471;SDS011;3777;48.722;8.110;2023-02-01T08:16:08;4.90;;;3.40;;
7471;SDS011;3777;48.722;8.110;2023-02-01T08:18:36;5.53;;;3.50;;
7471;SDS011;3777;48.722;8.110;2023-02-01T08:21:05;4.80;;;3.70;;
7471;SDS011;3777;48.722;8.110;2023-02-01T08:23:35;6.20;;;3.60;;
7471;SDS011;3777;48.722;8.110;2023-02-01T08:26:09;6.20;;;3.50;;
7471;SDS011;3777;48.722;8.110;2023-02-01T08:28:38;4.40;;;3.57;;
7471;SDS011;3777;48.722;8.110;2023-02-01T08:31:06;4.47;;;3.40;;
7471;SDS011;3777;48.722;8.110;2023-02-01T08:33:35;4.53;;;3.30;;
7471;SDS011;3777;48.722;8.110;2023-02-01T08:36:03;3.67;;;2.90;;
7471;SDS011;3777;48.722;8.110;2023-02-01T08:38:31;6.33;;;3.40;;
7471;SDS011;3777;48.722;8.110;2023-02-01T08:41:05;5.43;;;3.40;;
7471;SDS011;3777;48.722;8.110;2023-02-01T08:43:33;4.17;;;3.20;;
7471;SDS011;3777;48.722;8.110;2023-02-01T08:46:00;4.40;;;3.10;;
7471;SDS011;3777;48.722;8.110;2023-02-01T08:48:27;4.87;;;3.10;;
7471;SDS011;3777;48.722;8.110;2023-02-01T08:50:54;5.10;;;3.53;;
7471;SDS011;3777;48.722;8.110;2023-02-01T08:53:21;7.33;;;3.30;;
7471;SDS011;3777;48.722;8.110;2023-02-01T08:55:48;5.33;;;3.43;;
7471;SDS011;3777;48.722;8.110;2023-02-01T08:58:16;5.37;;;3.63;;
7471;SDS011;3777;48.722;8.110;2023-02-01T09:00:44;5.97;;;3.63;;
7471;SDS011;3777;48.722;8.110;2023-02-01T09:03:13;5.13;;;3.70;;
7471;SDS011;3777;48.722;8.110;2023-02-01T09:05:40;4.70;;;2.90;;
7471;SDS011;3777;48.722;8.110;2023-02-01T09:08:07;4.50;;;2.87;;
7471;SDS011;3777;48.722;8.110;2023-02-01T09:10:34;3.80;;;2.93;;
7471;SDS011;3777;48.722;8.110;2023-02-01T09:13:02;5.13;;;3.07;;
7471;SDS011;3777;48.722;8.110;2023-02-01T09:15:30;5.20;;;3.20;;
7471;SDS011;3777;48.722;8.110;2023-02-01T09:17:57;6.00;;;3.20;;
7471;SDS011;3777;48.722;8.110;2023-02-01T09:20:24;6.80;;;2.97;;
7471;SDS011;3777;48.722;8.110;2023-02-01T09:22:51;6.90;;;3.33;;
7471;SDS011;3777;48.722;8.110;2023-02-01T09:25:19;5.57;;;3.17;;
7471;SDS011;3777;48.722;8.110;2023-02-01T09:27:45;7.80;;;3.20;;
7471;SDS011;3777;48.722;8.110;2023-02-01T09:30:13;5.80;;;3.37;;
7471;SDS011;3777;48.722;8.110;2023-02-01T09:32:41;6.97;;;3.10;;
7471;SDS011;3777;48.722;8.110;2023-02-01T09:35:08;6.63;;;3.90;;
7471;SDS011;3777;48.722;8.110;2023-02-01T09:37:35;6.63;;;3.57;;
7471;SDS011;3777;48.722;8.110;2023-02-01T09:40:03;6.07;;;3.50;;
7471;SDS011;3777;48.722;8.110;2023-02-01T09:42:37;7.60;;;3.70;;
7471;SDS011;3777;48.722;8.110;2023-02-01T09:45:18;6.33;;;3.50;;
7471;SDS011;3777;48.722;8.110;2023-02-01T09:47:53;7.27;;;3.70;;
7471;SDS011;3777;48.722;8.110;2023-02-01T09:50:27;10.60;;;4.10;;
7471;SDS011;3777;48.722;8.110;2023-02-01T09:53:00;9.90;;;4.50;;
7471;SDS011;3777;48.722;8.110;2023-02-01T09:55:32;6.13;;;3.80;;
7471;SDS011;3777;48.722;8.110;2023-02-01T09:58:05;7.70;;;3.40;;
7471;SDS011;3777;48.722;8.110;2023-02-01T10:00:35;9.07;;;3.50;;
7471;SDS011;3777;48.722;8.110;2023-02-01T10:03:07;6.43;;;3.63;;
7471;SDS011;3777;48.722;8.110;2023-02-01T10:05:48;6.47;;;3.30;;
7471;SDS011;3777;48.722;8.110;2023-02-01T10:08:39;4.67;;;3.30;;
7471;SDS011;3777;48.722;8.110;2023-02-01T10:11:24;4.87;;;3.33;;
7471;SDS011;3777;48.722;8.110;2023-02-01T10:14:13;6.93;;;3.40;;
7471;SDS011;3777;48.722;8.110;2023-02-01T10:16:56;5.23;;;3.50;;
7471;SDS011;3777;48.722;8.110;2023-02-01T10:19:34;6.30;;;3.70;;
7471;SDS011;3777;48.722;8.110;2023-02-01T10:22:09;5.83;;;3.60;;
7471;SDS011;3777;48.722;8.110;2023-02-01T10:24:44;7.87;;;3.97;;
7471;SDS011;3777;48.722;8.110;2023-02-01T10:27:18;6.30;;;3.57;;
7471;SDS011;3777;48.722;8.110;2023-02-01T10:29:48;5.00;;;3.87;;
7471;SDS011;3777;48.722;8.110;2023-02-01T10:32:20;9.87;;;4.10;;
7471;SDS011;3777;48.722;8.110;2023-02-01T10:34:51;6.40;;;4.70;;
7471;SDS011;3777;48.722;8.110;2023-02-01T10:37:29;6.23;;;3.27;;
7471;SDS011;3777;48.722;8.110;2023-02-01T10:39:59;4.57;;;3.70;;
7471;SDS011;3777;48.722;8.110;2023-02-01T10:42:30;6.07;;;3.40;;
7471;SDS011;3777;48.722;8.110;2023-02-01T10:44:58;7.43;;;3.20;;
7471;SDS011;3777;48.722;8.110;2023-02-01T10:47:27;6.83;;;4.03;;
7471;SDS011;3777;48.722;8.110;2023-02-01T10:49:57;7.80;;;3.77;;
7471;SDS011;3777;48.722;8.110;2023-02-01T10:52:33;6.97;;;4.10;;
7471;SDS011;3777;48.722;8.110;2023-02-01T10:58:03;7.77;;;4.53;;
7471;SDS011;3777;48.722;8.110;2023-02-01T11:00:37;8.17;;;3.87;;
7471;SDS011;3777;48.722;8.110;2023-02-01T11:06:08;8.53;;;4.00;;
7471;SDS011;3777;48.722;8.110;2023-02-01T11:08:48;8.17;;;3.47;;
7471;SDS011;3777;48.722;8.110;2023-02-01T11:11:16;7.87;;;3.57;;
7471;SDS011;3777;48.722;8.110;2023-02-01T11:13:43;6.90;;;3.73;;
7471;SDS011;3777;48.722;8.110;2023-02-01T11:16:17;6.73;;;3.43;;
7471;SDS011;3777;48.722;8.110;2023-02-01T11:18:45;7.93;;;3.67;;
7471;SDS011;3777;48.722;8.110;2023-02-01T11:21:16;7.33;;;3.33;;
7471;SDS011;3777;48.722;8.110;2023-02-01T11:23:44;8.00;;;3.70;;
7471;SDS011;3777;48.722;8.110;2023-02-01T11:26:13;7.27;;;3.53;;
7471;SDS011;3777;48.722;8.110;2023-02-01T11:28:47;7.93;;;3.60;;
7471;SDS011;3777;48.722;8.110;2023-02-01T11:31:19;8.03;;;3.67;;
7471;SDS011;3777;48.722;8.110;2023-02-01T11:33:48;9.27;;;4.03;;
7471;SDS011;3777;48.722;8.110;2023-02-01T11:36:21;7.77;;;3.70;;
7471;SDS011;3777;48.722;8.110;2023-02-01T11:38:52;7.10;;;3.53;;
7471;SDS011;3777;48.722;8.110;2023-02-01T11:41:22;6.50;;;3.33;;
7471;SDS011;3777;48.722;8.110;2023-02-01T11:43:51;7.67;;;3.70;;
7471;SDS011;3777;48.722;8.110;2023-02-01T11:46:22;7.57;;;3.80;;
7471;SDS011;3777;48.722;8.110;2023-02-01T11:48:52;6.70;;;3.53;;
7471;SDS011;3777;48.722;8.110;2023-02-01T11:51:39;8.63;;;3.73;;
7471;SDS011;3777;48.722;8.110;2023-02-01T11:54:20;7.53;;;3.50;;
7471;SDS011;3777;48.722;8.110;2023-02-01T11:57:02;7.90;;;4.00;;
7471;SDS011;3777;48.722;8.110;2023-02-01T11:59:46;9.57;;;3.80;;
7471;SDS011;3777;48.722;8.110;2023-02-01T12:02:37;8.27;;;3.20;;
7471;SDS011;3777;48.722;8.110;2023-02-01T12:05:27;8.20;;;4.47;;
7471;SDS011;3777;48.722;8.110;2023-02-01T12:10:58;8.10;;;3.50;;
7471;SDS011;3777;48.722;8.110;2023-02-01T12:13:44;7.67;;;3.43;;
7471;SDS011;3777;48.722;8.110;2023-02-01T12:16:19;7.20;;;3.30;;
7471;SDS011;3777;48.722;8.110;2023-02-01T12:21:53;8.83;;;3.83;;
7471;SDS011;3777;48.722;8.110;2023-02-01T12:27:41;6.53;;;3.00;;
7471;SDS011;3777;48.722;8.110;2023-02-01T12:30:22;6.97;;;3.40;;
7471;SDS011;3777;48.722;8.110;2023-02-01T12:33:11;5.00;;;3.60;;
7471;SDS011;3777;48.722;8.110;2023-02-01T12:35:47;6.57;;;3.43;;
7471;SDS011;3777;48.722;8.110;2023-02-01T12:38:38;5.30;;;3.70;;
7471;SDS011;3777;48.722;8.110;2023-02-01T12:41:29;8.53;;;3.40;;
7471;SDS011;3777;48.722;8.110;2023-02-01T12:44:18;11.00;;;4.67;;
7471;SDS011;3777;48.722;8.110;2023-02-01T12:47:03;5.37;;;3.27;;
7471;SDS011;3777;48.722;8.110;2023-02-01T12:49:40;9.00;;;4.00;;
7471;SDS011;3777;48.722;8.110;2023-02-01T12:52:14;7.20;;;3.80;;
7471;SDS011;3777;48.722;8.110;2023-02-01T12:54:46;7.53;;;4.13;;
7471;SDS011;3777;48.722;8.110;2023-02-01T12:57:17;7.23;;;3.93;;
7471;SDS011;3777;48.722;8.110;2023-02-01T12:59:51;5.83;;;3.57;;
7471;SDS011;3777;48.722;8.110;2023-02-01T13:02:23;7.60;;;3.97;;
7471;SDS011;3777;48.722;8.110;2023-02-01T13:04:56;9.60;;;4.03;;
7471;SDS011;3777;48.722;8.110;2023-02-01T13:07:30;8.80;;;4.10;;
7471;SDS011;3777;48.722;8.110;2023-02-01T13:10:05;9.57;;;4.00;;
7471;SDS011;3777;48.722;8.110;2023-02-01T13:12:40;8.70;;;3.90;;
7471;SDS011;3777;48.722;8.110;2023-02-01T13:15:16;7.80;;;3.77;;
7471;SDS011;3777;48.722;8.110;2023-02-01T13:17:46;9.60;;;3.50;;
7471;SDS011;3777;48.722;8.110;2023-02-01T13:20:17;7.53;;;4.10;;
7471;SDS011;3777;48.722;8.110;2023-02-01T13:22:50;22.03;;;10.13;;
7471;SDS011;3777;48.722;8.110;2023-02-01T13:25:25;62.73;;;27.90;;
7471;SDS011;3777;48.722;8.110;2023-02-01T13:27:56;40.37;;;16.37;;
7471;SDS011;3777;48.722;8.110;2023-02-01T13:30:30;38.03;;;13.83;;
7471;SDS011;3777;48.722;8.110;2023-02-01T13:33:15;63.00;;;21.40;;
7471;SDS011;3777;48.722;8.110;2023-02-01T13:36:09;34.83;;;12.23;;
7471;SDS011;3777;48.722;8.110;2023-02-01T13:42:00;73.27;;;26.50;;
7471;SDS011;3777;48.722;8.110;2023-02-01T13:44:30;57.33;;;22.53;;
7471;SDS011;3777;48.722;8.110;2023-02-01T13:49:53;44.37;;;16.90;;
7471;SDS011;3777;48.722;8.110;2023-02-01T13:52:25;95.10;;;35.73;;
7471;SDS011;3777;48.722;8.110;2023-02-01T13:55:02;13.93;;;6.80;;
7471;SDS011;3777;48.722;8.110;2023-02-01T13:57:41;9.73;;;4.40;;
7471;SDS011;3777;48.722;8.110;2023-02-01T14:00:22;8.63;;;4.17;;
7471;SDS011;3777;48.722;8.110;2023-02-01T14:06:00;6.87;;;3.83;;
7471;SDS011;3777;48.722;8.110;2023-02-01T14:08:39;11.50;;;5.37;;
7471;SDS011;3777;48.722;8.110;2023-02-01T14:14:07;10.23;;;4.10;;
7471;SDS011;3777;48.722;8.110;2023-02-01T14:20:01;10.70;;;4.17;;
7471;SDS011;3777;48.722;8.110;2023-02-01T14:26:12;11.17;;;3.63;;
7471;SDS011;3777;48.722;8.110;2023-02-01T14:28:45;10.17;;;3.97;;
7471;SDS011;3777;48.722;8.110;2023-02-01T14:31:25;13.63;;;3.93;;
7471;SDS011;3777;48.722;8.110;2023-02-01T14:34:19;12.23;;;4.10;;
7471;SDS011;3777;48.722;8.110;2023-02-01T14:36:52;10.40;;;4.10;;
7471;SDS011;3777;48.722;8.110;2023-02-01T14:39:32;7.63;;;3.50;;
7471;SDS011;3777;48.722;8.110;2023-02-01T14:42:13;16.80;;;3.80;;
7471;SDS011;3777;48.722;8.110;2023-02-01T14:44:46;9.27;;;3.63;;
7471;SDS011;3777;48.722;8.110;2023-02-01T14:53:02;11.47;;;3.67;;
7471;SDS011;3777;48.722;8.110;2023-02-01T14:55:38;10.30;;;3.33;;
7471;SDS011;3777;48.722;8.110;2023-02-01T14:58:12;12.53;;;4.20;;
7471;SDS011;3777;48.722;8.110;2023-02-01T15:00:46;12.47;;;3.80;;
7471;SDS011;3777;48.722;8.110;2023-02-01T15:03:21;9.83;;;3.67;;
7471;SDS011;3777;48.722;8.110;2023-02-01T15:05:56;9.17;;;4.20;;
7471;SDS011;3777;48.722;8.110;2023-02-01T15:08:26;12.20;;;4.20;;
7471;SDS011;3777;48.722;8.110;2023-02-01T15:10:58;15.30;;;4.03;;
7471;SDS011;3777;48.722;8.110;2023-02-01T15:13:29;10.57;;;3.43;;
7471;SDS011;3777;48.722;8.110;2023-02-01T15:15:59;13.43;;;4.10;;
7471;SDS011;3777;48.722;8.110;2023-02-01T15:18:27;13.23;;;3.77;;
7471;SDS011;3777;48.722;8.110;2023-02-01T15:20:57;9.60;;;3.90;;
7471;SDS011;3777;48.722;8.110;2023-02-01T15:23:26;9.93;;;3.70;;
7471;SDS011;3777;48.722;8.110;2023-02-01T15:25:53;9.47;;;3.70;;
7471;SDS011;3777;48.722;8.110;2023-02-01T15:28:22;12.00;;;4.13;;
7471;SDS011;3777;48.722;8.110;2023-02-01T15:30:53;11.07;;;3.83;;
7471;SDS011;3777;48.722;8.110;2023-02-01T15:33:22;12.53;;;4.10;;
7471;SDS011;3777;48.722;8.110;2023-02-01T15:35:50;19.73;;;8.33;;
7471;SDS011;3777;48.722;8.110;2023-02-01T15:41:05;9.93;;;3.90;;
7471;SDS011;3777;48.722;8.110;2023-02-01T15:43:37;10.97;;;3.90;;
7471;SDS011;3777;48.722;8.110;2023-02-01T15:46:07;15.43;;;4.50;;
7471;SDS011;3777;48.722;8.110;2023-02-01T15:48:38;11.70;;;4.20;;
7471;SDS011;3777;48.722;8.110;2023-02-01T15:51:16;8.10;;;3.70;;
7471;SDS011;3777;48.722;8.110;2023-02-01T15:53:50;10.57;;;3.70;;
7471;SDS011;3777;48.722;8.110;2023-02-01T15:56:21;11.63;;;3.70;;
7471;SDS011;3777;48.722;8.110;2023-02-01T15:58:53;12.37;;;4.27;;
7471;SDS011;3777;48.722;8.110;2023-02-01T16:01:23;10.83;;;3.90;;
7471;SDS011;3777;48.722;8.110;2023-02-01T16:04:00;9.83;;;3.83;;
7471;SDS011;3777;48.722;8.110;2023-02-01T16:06:30;9.03;;;3.70;;
7471;SDS011;3777;48.722;8.110;2023-02-01T16:09:08;11.97;;;4.33;;
7471;SDS011;3777;48.722;8.110;2023-02-01T16:11:40;14.80;;;4.17;;
7471;SDS011;3777;48.722;8.110;2023-02-01T16:14:14;9.23;;;5.17;;
7471;SDS011;3777;48.722;8.110;2023-02-01T16:16:41;9.13;;;5.67;;
7471;SDS011;3777;48.722;8.110;2023-02-01T16:19:08;11.03;;;4.00;;
7471;SDS011;3777;48.722;8.110;2023-02-01T16:21:35;11.50;;;3.80;;
7471;SDS011;3777;48.722;8.110;2023-02-01T16:24:02;12.33;;;4.30;;